sensor_id;sensor_type;location;lat;lon;timestamp;pressure;altitude;pressure_sealevel;temperature;humidity
50430;BME280;36359;41.556;-8.418;2022-07-29T00:00:42;100148.38;;;23.76;58.81
50430;BME280;36359;41.556;-8.418;2022-07-29T00:03:11;100150.03;;;23.65;57.72
50430;BME280;36359;41.556;-8.418;2022-07-29T00:05:40;100154.09;;;23.27;59.10
50430;BME280;36359;41.556;-8.418;2022-07-29T00:08:08;100152.19;;;23.63;57.74
50430;BME280;36359;41.556;-8.418;2022-07-29T00:10:34;100144.31;;;23.13;59.05
50430;BME280;36359;41.556;-8.418;2022-07-29T00:13:01;100152.00;;;23.11;60.14
50430;BME280;36359;41.556;-8.418;2022-07-29T00:15:27;100148.69;;;23.68;59.13
50430;BME280;36359;41.556;-8.418;2022-07-29T00:17:53;100141.38;;;23.97;57.95
50430;BME280;36359;41.556;-8.418;2022-07-29T00:20:18;100153.31;;;23.20;57.89
50430;BME280;36359;41.556;-8.418;2022-07-29T00:22:44;100145.41;;;22.94;60.15
50430;BME280;36359;41.556;-8.418;2022-07-29T00:25:12;100141.81;;;23.47;59.67
50430;BME280;36359;41.556;-8.418;2022-07-29T00:27:38;100136.53;;;23.45;58.33
50430;BME280;36359;41.556;-8.418;2022-07-29T00:30:04;100132.03;;;22.90;59.34
50430;BME280;36359;41.556;-8.418;2022-07-29T00:32:31;100128.91;;;23.29;59.98
50430;BME280;36359;41.556;-8.418;2022-07-29T00:34:56;100133.06;;;22.96;59.60
50430;BME280;36359;41.556;-8.418;2022-07-29T00:37:41;100136.75;;;23.44;59.39
50430;BME280;36359;41.556;-8.418;2022-07-29T00:40:07;100130.50;;;23.48;57.61
50430;BME280;36359;41.556;-8.418;2022-07-29T00:42:52;100130.00;;;22.86;59.66
50430;BME280;36359;41.556;-8.418;2022-07-29T00:45:19;100135.41;;;23.23;60.41
50430;BME280;36359;41.556;-8.418;2022-07-29T00:47:45;100132.25;;;23.07;60.07
50430;BME280;36359;41.556;-8.418;2022-07-29T00:50:12;100130.13;;;22.91;60.26
50430;BME280;36359;41.556;-8.418;2022-07-29T00:52:39;100131.31;;;23.13;59.36
50430;BME280;36359;41.556;-8.418;2022-07-29T00:55:08;100133.19;;;23.01;60.61
50430;BME280;36359;41.556;-8.418;2022-07-29T00:57:38;100132.16;;;23.26;59.93
50430;BME280;36359;41.556;-8.418;2022-07-29T01:00:05;100131.31;;;23.13;59.43
50430;BME280;36359;41.556;-8.418;2022-07-29T01:02:31;100128.38;;;23.50;59.61
50430;BME280;36359;41.556;-8.418;2022-07-29T01:04:57;100129.91;;;23.58;58.91
50430;BME280;36359;41.556;-8.418;2022-07-29T01:07:27;100131.41;;;23.72;58.77
50430;BME280;36359;41.556;-8.418;2022-07-29T01:09:54;100120.13;;;23.20;58.82
50430;BME280;36359;41.556;-8.418;2022-07-29T01:12:25;100114.84;;;23.19;60.35
50430;BME280;36359;41.556;-8.418;2022-07-29T01:14:53;100118.34;;;23.61;58.94
50430;BME280;36359;41.556;-8.418;2022-07-29T01:20:10;100125.84;;;22.47;61.05
50430;BME280;36359;41.556;-8.418;2022-07-29T01:30:26;100113.78;;;23.43;60.00
50430;BME280;36359;41.556;-8.418;2022-07-29T01:32:57;100114.91;;;23.77;58.86
50430;BME280;36359;41.556;-8.418;2022-07-29T01:35:39;100112.59;;;23.98;58.07
50430;BME280;36359;41.556;-8.418;2022-07-29T01:38:13;100103.44;;;23.97;58.02
50430;BME280;36359;41.556;-8.418;2022-07-29T01:41:03;100115.47;;;23.44;57.84
50430;BME280;36359;41.556;-8.418;2022-07-29T01:46:14;100115.91;;;23.18;60.09
50430;BME280;36359;41.556;-8.418;2022-07-29T01:53:46;100112.78;;;23.26;59.46
50430;BME280;36359;41.556;-8.418;2022-07-29T01:56:14;100122.03;;;22.48;60.56
50430;BME280;36359;41.556;-8.418;2022-07-29T01:58:43;100113.66;;;21.99;62.54
50430;BME280;36359;41.556;-8.418;2022-07-29T02:01:12;100110.09;;;22.65;62.18
50430;BME280;36359;41.556;-8.418;2022-07-29T02:03:42;100119.63;;;22.81;61.42
50430;BME280;36359;41.556;-8.418;2022-07-29T02:06:11;100117.91;;;22.99;60.03
50430;BME280;36359;41.556;-8.418;2022-07-29T02:08:58;100104.78;;;22.64;61.79
50430;BME280;36359;41.556;-8.418;2022-07-29T02:11:24;100103.16;;;22.75;60.50
50430;BME280;36359;41.556;-8.418;2022-07-29T02:13:52;100104.69;;;22.04;62.98
50430;BME280;36359;41.556;-8.418;2022-07-29T02:16:22;100106.16;;;22.85;62.13
50430;BME280;36359;41.556;-8.418;2022-07-29T02:18:51;100099.19;;;22.82;60.37
50430;BME280;36359;41.556;-8.418;2022-07-29T02:21:26;100099.63;;;22.37;63.06
50430;BME280;36359;41.556;-8.418;2022-07-29T02:23:54;100087.25;;;23.00;61.63
50430;BME280;36359;41.556;-8.418;2022-07-29T02:26:23;100106.47;;;22.95;59.85
50430;BME280;36359;41.556;-8.418;2022-07-29T02:28:51;100093.41;;;22.23;63.04
50430;BME280;36359;41.556;-8.418;2022-07-29T02:31:23;100106.56;;;22.88;61.69
50430;BME280;36359;41.556;-8.418;2022-07-29T02:33:52;100102.56;;;22.84;60.09
50430;BME280;36359;41.556;-8.418;2022-07-29T02:36:21;100101.91;;;22.71;61.67
50430;BME280;36359;41.556;-8.418;2022-07-29T02:38:48;100097.03;;;22.84;60.38
50430;BME280;36359;41.556;-8.418;2022-07-29T02:41:33;100111.91;;;22.41;61.61
50430;BME280;36359;41.556;-8.418;2022-07-29T02:44:08;100094.84;;;22.75;62.13
50430;BME280;36359;41.556;-8.418;2022-07-29T02:46:36;100109.25;;;22.65;61.48
50430;BME280;36359;41.556;-8.418;2022-07-29T02:49:14;100109.31;;;22.28;62.30
50430;BME280;36359;41.556;-8.418;2022-07-29T02:52:16;100105.38;;;22.17;63.80
50430;BME280;36359;41.556;-8.418;2022-07-29T02:54:53;100101.16;;;21.78;64.02
50430;BME280;36359;41.556;-8.418;2022-07-29T02:57:31;100108.00;;;22.12;64.37
50430;BME280;36359;41.556;-8.418;2022-07-29T03:00:00;100103.28;;;22.50;62.69
50430;BME280;36359;41.556;-8.418;2022-07-29T03:02:33;100092.72;;;22.88;61.95
50430;BME280;36359;41.556;-8.418;2022-07-29T03:05:00;100106.56;;;23.30;60.57
50430;BME280;36359;41.556;-8.418;2022-07-29T03:07:26;100101.44;;;22.62;60.57
50430;BME280;36359;41.556;-8.418;2022-07-29T03:09:53;100108.28;;;22.41;62.08
50430;BME280;36359;41.556;-8.418;2022-07-29T03:12:19;100106.63;;;22.82;61.83
50430;BME280;36359;41.556;-8.418;2022-07-29T03:14:46;100106.28;;;22.78;60.51
50430;BME280;36359;41.556;-8.418;2022-07-29T03:17:12;100102.84;;;22.34;62.11
50430;BME280;36359;41.556;-8.418;2022-07-29T03:19:39;100102.63;;;22.36;63.59
50430;BME280;36359;41.556;-8.418;2022-07-29T03:22:05;100108.53;;;22.70;61.43
50430;BME280;36359;41.556;-8.418;2022-07-29T03:24:34;100107.22;;;22.05;63.40
50430;BME280;36359;41.556;-8.418;2022-07-29T03:27:01;100110.69;;;22.00;64.23
50430;BME280;36359;41.556;-8.418;2022-07-29T03:29:27;100104.53;;;22.35;63.25
50430;BME280;36359;41.556;-8.418;2022-07-29T03:31:53;100110.66;;;22.37;63.70
50430;BME280;36359;41.556;-8.418;2022-07-29T03:34:19;100100.41;;;22.26;63.35
50430;BME280;36359;41.556;-8.418;2022-07-29T03:36:46;100109.31;;;22.28;62.78
50430;BME280;36359;41.556;-8.418;2022-07-29T03:39:17;100110.72;;;21.94;63.90
50430;BME280;36359;41.556;-8.418;2022-07-29T03:41:44;100108.00;;;22.12;63.43
50430;BME280;36359;41.556;-8.418;2022-07-29T03:44:15;100112.81;;;21.98;63.74
50430;BME280;36359;41.556;-8.418;2022-07-29T03:46:43;100110.91;;;21.55;64.90
50430;BME280;36359;41.556;-8.418;2022-07-29T03:49:11;100118.00;;;21.70;64.98
50430;BME280;36359;41.556;-8.418;2022-07-29T03:51:37;100111.44;;;22.08;65.20
50430;BME280;36359;41.556;-8.418;2022-07-29T03:54:04;100117.19;;;22.73;62.85
50430;BME280;36359;41.556;-8.418;2022-07-29T03:56:32;100115.63;;;22.96;62.15
50430;BME280;36359;41.556;-8.418;2022-07-29T03:59:01;100107.59;;;21.90;64.14
50430;BME280;36359;41.556;-8.418;2022-07-29T04:01:29;100108.50;;;20.46;69.90
50430;BME280;36359;41.556;-8.418;2022-07-29T04:03:55;100110.13;;;20.67;69.57
50430;BME280;36359;41.556;-8.418;2022-07-29T04:06:21;100114.22;;;20.89;69.21
50430;BME280;36359;41.556;-8.418;2022-07-29T04:08:47;100116.75;;;21.47;67.69
50430;BME280;36359;41.556;-8.418;2022-07-29T04:11:13;100123.97;;;21.17;67.20
50430;BME280;36359;41.556;-8.418;2022-07-29T04:13:38;100122.69;;;20.87;69.12
50430;BME280;36359;41.556;-8.418;2022-07-29T04:16:04;100119.09;;;21.87;66.98
50430;BME280;36359;41.556;-8.418;2022-07-29T04:18:30;100119.63;;;21.59;66.16
50430;BME280;36359;41.556;-8.418;2022-07-29T04:20:56;100115.13;;;21.08;67.02
50430;BME280;36359;41.556;-8.418;2022-07-29T04:23:24;100116.84;;;20.77;68.58
50430;BME280;36359;41.556;-8.418;2022-07-29T04:25:50;100120.94;;;20.68;69.81
50430;BME280;36359;41.556;-8.418;2022-07-29T04:28:16;100122.69;;;20.87;69.03
50430;BME280;36359;41.556;-8.418;2022-07-29T04:30:41;100115.56;;;20.73;68.47
50430;BME280;36359;41.556;-8.418;2022-07-29T04:33:07;100121.34;;;21.03;69.22
50430;BME280;36359;41.556;-8.418;2022-07-29T04:35:35;100125.47;;;21.88;66.46
50430;BME280;36359;41.556;-8.418;2022-07-29T04:38:01;100125.88;;;22.28;64.54
50430;BME280;36359;41.556;-8.418;2022-07-29T04:40:28;100123.56;;;22.43;63.85
50430;BME280;36359;41.556;-8.418;2022-07-29T04:42:54;100125.13;;;22.70;63.20
50430;BME280;36359;41.556;-8.418;2022-07-29T04:45:20;100127.28;;;22.19;63.38
50430;BME280;36359;41.556;-8.418;2022-07-29T04:47:45;100130.78;;;22.44;63.80
50430;BME280;36359;41.556;-8.418;2022-07-29T04:50:11;100137.53;;;22.49;63.16
50430;BME280;36359;41.556;-8.418;2022-07-29T04:52:37;100137.50;;;22.12;64.11
50430;BME280;36359;41.556;-8.418;2022-07-29T04:55:05;100131.69;;;21.83;64.22
50430;BME280;36359;41.556;-8.418;2022-07-29T04:57:31;100141.56;;;21.91;64.85
50430;BME280;36359;41.556;-8.418;2022-07-29T04:59:57;100132.31;;;22.04;65.16
50430;BME280;36359;41.556;-8.418;2022-07-29T05:02:22;100144.78;;;22.61;63.59
50430;BME280;36359;41.556;-8.418;2022-07-29T05:04:48;100144.16;;;23.08;61.78
50430;BME280;36359;41.556;-8.418;2022-07-29T05:07:14;100140.84;;;22.39;61.50
50430;BME280;36359;41.556;-8.418;2022-07-29T05:09:40;100138.50;;;21.81;63.71
50430;BME280;36359;41.556;-8.418;2022-07-29T05:12:07;100141.09;;;22.19;64.44
50430;BME280;36359;41.556;-8.418;2022-07-29T05:14:33;100139.81;;;22.52;62.36
50430;BME280;36359;41.556;-8.418;2022-07-29T05:16:58;100140.75;;;22.09;62.72
50430;BME280;36359;41.556;-8.418;2022-07-29T05:19:24;100152.44;;;22.29;63.84
50430;BME280;36359;41.556;-8.418;2022-07-29T05:21:50;100143.97;;;22.06;63.17
50430;BME280;36359;41.556;-8.418;2022-07-29T05:24:16;100145.44;;;21.65;64.52
50430;BME280;36359;41.556;-8.418;2022-07-29T05:26:42;100154.84;;;21.32;65.85
50430;BME280;36359;41.556;-8.418;2022-07-29T05:29:08;100160.47;;;21.50;65.88
50430;BME280;36359;41.556;-8.418;2022-07-29T05:31:34;100152.47;;;21.10;66.81
50430;BME280;36359;41.556;-8.418;2022-07-29T05:34:00;100150.94;;;21.71;66.46
50430;BME280;36359;41.556;-8.418;2022-07-29T05:36:26;100151.03;;;21.33;66.43
50430;BME280;36359;41.556;-8.418;2022-07-29T05:38:52;100157.47;;;21.52;66.94
50430;BME280;36359;41.556;-8.418;2022-07-29T05:41:18;100156.28;;;22.28;64.79
50430;BME280;36359;41.556;-8.418;2022-07-29T05:43:44;100157.00;;;22.72;63.01
50430;BME280;36359;41.556;-8.418;2022-07-29T05:46:10;100155.06;;;22.73;61.59
50430;BME280;36359;41.556;-8.418;2022-07-29T05:48:36;100159.06;;;22.77;61.44
50430;BME280;36359;41.556;-8.418;2022-07-29T05:51:02;100162.91;;;22.76;61.91
50430;BME280;36359;41.556;-8.418;2022-07-29T05:53:27;100168.38;;;22.94;61.65
50430;BME280;36359;41.556;-8.418;2022-07-29T05:55:53;100167.88;;;22.37;61.90
50430;BME280;36359;41.556;-8.418;2022-07-29T05:58:20;100178.78;;;21.88;63.43
50430;BME280;36359;41.556;-8.418;2022-07-29T06:00:45;100170.50;;;21.45;65.27
50430;BME280;36359;41.556;-8.418;2022-07-29T06:03:11;100173.28;;;21.06;67.02
50430;BME280;36359;41.556;-8.418;2022-07-29T06:05:37;100178.03;;;20.54;69.79
50430;BME280;36359;41.556;-8.418;2022-07-29T06:08:03;100172.28;;;20.56;69.49
50430;BME280;36359;41.556;-8.418;2022-07-29T06:10:34;100181.19;;;20.51;70.33
50430;BME280;36359;41.556;-8.418;2022-07-29T06:13:00;100192.09;;;20.19;71.31
50430;BME280;36359;41.556;-8.418;2022-07-29T06:15:25;100188.53;;;20.77;70.05
50430;BME280;36359;41.556;-8.418;2022-07-29T06:17:51;100196.25;;;21.82;67.04
50430;BME280;36359;41.556;-8.418;2022-07-29T06:20:18;100192.31;;;21.96;65.26
50430;BME280;36359;41.556;-8.418;2022-07-29T06:22:44;100192.97;;;22.35;64.62
50430;BME280;36359;41.556;-8.418;2022-07-29T06:25:10;100203.06;;;22.78;63.09
50430;BME280;36359;41.556;-8.418;2022-07-29T06:27:37;100202.78;;;22.13;64.10
50430;BME280;36359;41.556;-8.418;2022-07-29T06:30:03;100201.53;;;21.65;66.31
50430;BME280;36359;41.556;-8.418;2022-07-29T06:32:32;100196.75;;;21.54;66.80
50430;BME280;36359;41.556;-8.418;2022-07-29T06:34:58;100202.81;;;21.38;67.66
50430;BME280;36359;41.556;-8.418;2022-07-29T06:37:24;100189.25;;;22.05;65.72
50430;BME280;36359;41.556;-8.418;2022-07-29T06:39:50;100199.88;;;21.58;67.40
50430;BME280;36359;41.556;-8.418;2022-07-29T06:42:35;100200.28;;;21.36;67.77
50430;BME280;36359;41.556;-8.418;2022-07-29T06:45:01;100197.41;;;21.49;67.69
50430;BME280;36359;41.556;-8.418;2022-07-29T06:47:27;100203.72;;;21.57;67.20
50430;BME280;36359;41.556;-8.418;2022-07-29T06:49:53;100209.22;;;21.82;66.26
50430;BME280;36359;41.556;-8.418;2022-07-29T06:52:19;100198.69;;;21.47;67.59
50430;BME280;36359;41.556;-8.418;2022-07-29T06:54:45;100213.88;;;21.63;67.27
50430;BME280;36359;41.556;-8.418;2022-07-29T06:57:13;100205.34;;;21.89;66.21
50430;BME280;36359;41.556;-8.418;2022-07-29T06:59:39;100206.66;;;21.87;66.32
50430;BME280;36359;41.556;-8.418;2022-07-29T07:02:05;100208.09;;;21.89;66.21
50430;BME280;36359;41.556;-8.418;2022-07-29T07:04:31;100209.16;;;21.38;67.30
50430;BME280;36359;41.556;-8.418;2022-07-29T07:06:57;100210.31;;;21.24;67.96
50430;BME280;36359;41.556;-8.418;2022-07-29T07:09:24;100206.81;;;21.92;66.58
50430;BME280;36359;41.556;-8.418;2022-07-29T07:11:50;100215.84;;;21.81;65.88
50430;BME280;36359;41.556;-8.418;2022-07-29T07:14:16;100200.50;;;21.85;66.55
50430;BME280;36359;41.556;-8.418;2022-07-29T07:16:42;100212.44;;;22.04;65.53
50430;BME280;36359;41.556;-8.418;2022-07-29T07:19:07;100206.16;;;22.15;65.62
50430;BME280;36359;41.556;-8.418;2022-07-29T07:21:33;100213.34;;;21.97;64.67
50430;BME280;36359;41.556;-8.418;2022-07-29T07:23:59;100204.63;;;21.50;66.87
50430;BME280;36359;41.556;-8.418;2022-07-29T07:26:27;100214.31;;;21.60;65.60
50430;BME280;36359;41.556;-8.418;2022-07-29T07:28:53;100215.50;;;21.45;66.67
50430;BME280;36359;41.556;-8.418;2022-07-29T07:31:18;100216.91;;;21.54;66.28
50430;BME280;36359;41.556;-8.418;2022-07-29T07:33:45;100221.69;;;21.66;65.96
50430;BME280;36359;41.556;-8.418;2022-07-29T07:36:11;100207.91;;;21.66;65.37
50430;BME280;36359;41.556;-8.418;2022-07-29T07:38:36;100213.41;;;21.66;66.50
50430;BME280;36359;41.556;-8.418;2022-07-29T07:41:02;100226.09;;;21.48;66.18
50430;BME280;36359;41.556;-8.418;2022-07-29T07:43:28;100220.44;;;21.37;66.82
50430;BME280;36359;41.556;-8.418;2022-07-29T07:45:54;100226.53;;;21.70;66.52
50430;BME280;36359;41.556;-8.418;2022-07-29T07:48:20;100228.00;;;21.48;66.02
50430;BME280;36359;41.556;-8.418;2022-07-29T07:50:46;100225.63;;;21.51;66.22
50430;BME280;36359;41.556;-8.418;2022-07-29T07:53:11;100223.63;;;21.65;65.54
50430;BME280;36359;41.556;-8.418;2022-07-29T07:55:42;100222.56;;;22.10;65.27
50430;BME280;36359;41.556;-8.418;2022-07-29T07:58:09;100220.00;;;22.33;63.44
50430;BME280;36359;41.556;-8.418;2022-07-29T08:00:35;100217.31;;;22.45;63.09
50430;BME280;36359;41.556;-8.418;2022-07-29T08:03:00;100225.69;;;22.57;63.14
50430;BME280;36359;41.556;-8.418;2022-07-29T08:05:26;100214.50;;;22.33;63.37
50430;BME280;36359;41.556;-8.418;2022-07-29T08:07:52;100224.78;;;22.44;63.50
50430;BME280;36359;41.556;-8.418;2022-07-29T08:10:21;100222.94;;;22.38;63.86
50430;BME280;36359;41.556;-8.418;2022-07-29T08:13:10;100222.00;;;22.63;62.73
50430;BME280;36359;41.556;-8.418;2022-07-29T08:15:39;100225.72;;;22.87;62.21
50430;BME280;36359;41.556;-8.418;2022-07-29T08:18:06;100230.88;;;22.83;62.42
50430;BME280;36359;41.556;-8.418;2022-07-29T08:20:32;100230.72;;;22.97;61.75
50430;BME280;36359;41.556;-8.418;2022-07-29T08:23:02;100230.06;;;22.83;62.14
50430;BME280;36359;41.556;-8.418;2022-07-29T08:25:28;100226.44;;;22.64;62.97
50430;BME280;36359;41.556;-8.418;2022-07-29T08:27:54;100223.53;;;22.77;62.78
50430;BME280;36359;41.556;-8.418;2022-07-29T08:30:20;100242.44;;;23.41;60.94
50430;BME280;36359;41.556;-8.418;2022-07-29T08:32:47;100228.00;;;23.80;59.64
50430;BME280;36359;41.556;-8.418;2022-07-29T08:35:14;100235.09;;;24.00;59.06
50430;BME280;36359;41.556;-8.418;2022-07-29T08:37:39;100237.78;;;24.18;58.01
50430;BME280;36359;41.556;-8.418;2022-07-29T08:40:05;100228.78;;;23.69;59.39
50430;BME280;36359;41.556;-8.418;2022-07-29T08:42:31;100229.44;;;23.83;59.13
50430;BME280;36359;41.556;-8.418;2022-07-29T08:44:58;100233.25;;;23.70;59.45
50430;BME280;36359;41.556;-8.418;2022-07-29T08:47:25;100238.13;;;23.87;59.40
50430;BME280;36359;41.556;-8.418;2022-07-29T08:49:52;100226.31;;;23.38;59.58
50430;BME280;36359;41.556;-8.418;2022-07-29T08:52:18;100229.66;;;23.70;59.18
50430;BME280;36359;41.556;-8.418;2022-07-29T08:54:45;100236.78;;;23.77;59.43
50430;BME280;36359;41.556;-8.418;2022-07-29T08:57:14;100229.47;;;23.53;60.39
50430;BME280;36359;41.556;-8.418;2022-07-29T08:59:42;100230.88;;;23.74;59.80
50430;BME280;36359;41.556;-8.418;2022-07-29T09:02:18;100222.09;;;23.89;59.30
50430;BME280;36359;41.556;-8.418;2022-07-29T09:04:45;100212.94;;;24.00;58.83
50430;BME280;36359;41.556;-8.418;2022-07-29T09:07:14;100225.47;;;24.14;58.11
50430;BME280;36359;41.556;-8.418;2022-07-29T09:09:40;100213.03;;;24.29;57.58
50430;BME280;36359;41.556;-8.418;2022-07-29T09:12:06;100222.81;;;24.19;57.54
50430;BME280;36359;41.556;-8.418;2022-07-29T09:14:33;100213.16;;;24.57;56.94
50430;BME280;36359;41.556;-8.418;2022-07-29T09:16:59;100211.13;;;24.81;56.40
50430;BME280;36359;41.556;-8.418;2022-07-29T09:19:34;100214.44;;;25.07;55.27
50430;BME280;36359;41.556;-8.418;2022-07-29T09:22:07;100205.25;;;25.06;55.43
50430;BME280;36359;41.556;-8.418;2022-07-29T09:27:01;100211.19;;;24.69;56.95
50430;BME280;36359;41.556;-8.418;2022-07-29T09:29:27;100205.44;;;24.88;55.97
50430;BME280;36359;41.556;-8.418;2022-07-29T09:31:54;100211.16;;;25.10;56.28
50430;BME280;36359;41.556;-8.418;2022-07-29T09:34:25;100200.69;;;25.29;54.61
50430;BME280;36359;41.556;-8.418;2022-07-29T09:36:52;100197.69;;;25.30;54.67
50430;BME280;36359;41.556;-8.418;2022-07-29T09:39:38;100201.16;;;25.54;54.09
50430;BME280;36359;41.556;-8.418;2022-07-29T09:42:11;100201.31;;;25.48;54.46
50430;BME280;36359;41.556;-8.418;2022-07-29T09:47:07;100197.38;;;25.77;53.90
50430;BME280;36359;41.556;-8.418;2022-07-29T09:49:34;100199.16;;;25.83;53.74
50430;BME280;36359;41.556;-8.418;2022-07-29T09:52:05;100197.09;;;26.13;52.63
50430;BME280;36359;41.556;-8.418;2022-07-29T09:54:31;100202.06;;;26.11;53.30
50430;BME280;36359;41.556;-8.418;2022-07-29T09:57:07;100197.22;;;26.23;51.85
50430;BME280;36359;41.556;-8.418;2022-07-29T09:59:35;100193.84;;;25.82;53.56
50430;BME280;36359;41.556;-8.418;2022-07-29T10:02:01;100188.94;;;25.72;53.01
50430;BME280;36359;41.556;-8.418;2022-07-29T10:04:38;100188.38;;;25.87;53.59
50430;BME280;36359;41.556;-8.418;2022-07-29T10:07:04;100195.94;;;25.75;53.23
50430;BME280;36359;41.556;-8.418;2022-07-29T10:09:32;100194.31;;;26.13;52.89
50430;BME280;36359;41.556;-8.418;2022-07-29T10:12:09;100190.28;;;26.03;53.51
50430;BME280;36359;41.556;-8.418;2022-07-29T10:14:37;100191.53;;;26.13;52.69
50430;BME280;36359;41.556;-8.418;2022-07-29T10:17:05;100191.84;;;26.55;52.10
50430;BME280;36359;41.556;-8.418;2022-07-29T10:19:32;100191.13;;;26.43;52.17
50430;BME280;36359;41.556;-8.418;2022-07-29T10:22:00;100191.72;;;26.67;51.34
50430;BME280;36359;41.556;-8.418;2022-07-29T10:24:27;100189.59;;;26.35;51.75
50430;BME280;36359;41.556;-8.418;2022-07-29T10:26:57;100188.28;;;26.82;51.05
50430;BME280;36359;41.556;-8.418;2022-07-29T10:29:24;100179.78;;;26.93;50.55
50430;BME280;36359;41.556;-8.418;2022-07-29T10:43:37;100182.19;;;27.66;48.28
50430;BME280;36359;41.556;-8.418;2022-07-29T10:46:06;100175.66;;;27.55;48.85
50430;BME280;36359;41.556;-8.418;2022-07-29T10:48:33;100174.94;;;27.70;48.60
50430;BME280;36359;41.556;-8.418;2022-07-29T10:51:01;100166.53;;;27.28;49.89
50430;BME280;36359;41.556;-8.418;2022-07-29T10:53:50;100170.81;;;27.40;49.47
50430;BME280;36359;41.556;-8.418;2022-07-29T10:56:30;100166.78;;;27.26;49.84
50430;BME280;36359;41.556;-8.418;2022-07-29T11:01:43;100162.94;;;28.02;48.27
50430;BME280;36359;41.556;-8.418;2022-07-29T11:04:09;100170.69;;;27.90;47.95
50430;BME280;36359;41.556;-8.418;2022-07-29T11:07:08;100161.19;;;27.91;47.63
50430;BME280;36359;41.556;-8.418;2022-07-29T11:09:34;100165.78;;;28.07;48.06
50430;BME280;36359;41.556;-8.418;2022-07-29T11:12:00;100154.38;;;28.14;47.44
50430;BME280;36359;41.556;-8.418;2022-07-29T11:17:21;100162.59;;;28.41;46.89
50430;BME280;36359;41.556;-8.418;2022-07-29T11:19:47;100154.94;;;28.79;46.75
50430;BME280;36359;41.556;-8.418;2022-07-29T11:22:32;100154.38;;;28.76;46.14
50430;BME280;36359;41.556;-8.418;2022-07-29T11:25:17;100147.41;;;28.79;45.88
50430;BME280;36359;41.556;-8.418;2022-07-29T11:27:44;100139.19;;;28.42;46.68
50430;BME280;36359;41.556;-8.418;2022-07-29T11:30:11;100144.91;;;28.83;46.65
50430;BME280;36359;41.556;-8.418;2022-07-29T11:32:42;100150.50;;;28.83;46.37
50430;BME280;36359;41.556;-8.418;2022-07-29T11:35:23;100148.34;;;29.05;45.57
50430;BME280;36359;41.556;-8.418;2022-07-29T11:40:33;100145.00;;;29.13;45.47
50430;BME280;36359;41.556;-8.418;2022-07-29T11:42:59;100143.06;;;29.19;45.02
50430;BME280;36359;41.556;-8.418;2022-07-29T11:47:58;100133.81;;;28.35;46.63
50430;BME280;36359;41.556;-8.418;2022-07-29T11:50:35;100130.97;;;28.83;44.03
50430;BME280;36359;41.556;-8.418;2022-07-29T11:53:12;100134.31;;;28.80;44.16
50430;BME280;36359;41.556;-8.418;2022-07-29T11:55:39;100132.16;;;29.07;44.35
50430;BME280;36359;41.556;-8.418;2022-07-29T11:58:05;100136.53;;;28.83;44.42
50430;BME280;36359;41.556;-8.418;2022-07-29T12:00:35;100129.59;;;29.01;44.40
50430;BME280;36359;41.556;-8.418;2022-07-29T12:03:04;100128.78;;;29.10;43.78
50430;BME280;36359;41.556;-8.418;2022-07-29T12:05:35;100128.50;;;29.32;43.05
50430;BME280;36359;41.556;-8.418;2022-07-29T12:08:10;100121.22;;;29.01;43.73
50430;BME280;36359;41.556;-8.418;2022-07-29T12:10:36;100126.28;;;29.60;42.73
50430;BME280;36359;41.556;-8.418;2022-07-29T12:13:02;100129.63;;;29.26;42.19
50430;BME280;36359;41.556;-8.418;2022-07-29T12:15:28;100127.13;;;29.25;42.51
50430;BME280;36359;41.556;-8.418;2022-07-29T12:17:54;100128.22;;;29.44;42.81
50430;BME280;36359;41.556;-8.418;2022-07-29T12:20:26;100129.34;;;29.23;42.45
50430;BME280;36359;41.556;-8.418;2022-07-29T12:22:53;100122.66;;;29.39;41.63
50430;BME280;36359;41.556;-8.418;2022-07-29T12:25:21;100121.81;;;29.74;41.50
50430;BME280;36359;41.556;-8.418;2022-07-29T12:27:47;100117.63;;;29.51;40.55
50430;BME280;36359;41.556;-8.418;2022-07-29T12:30:22;100128.56;;;29.68;40.30
50430;BME280;36359;41.556;-8.418;2022-07-29T12:32:48;100121.81;;;29.54;41.17
50430;BME280;36359;41.556;-8.418;2022-07-29T12:35:16;100119.25;;;30.03;40.34
50430;BME280;36359;41.556;-8.418;2022-07-29T12:37:45;100119.31;;;29.73;39.86
50430;BME280;36359;41.556;-8.418;2022-07-29T12:40:14;100115.91;;;29.96;39.84
50430;BME280;36359;41.556;-8.418;2022-07-29T12:48:36;100110.25;;;30.22;39.63
50430;BME280;36359;41.556;-8.418;2022-07-29T12:51:04;100109.69;;;30.25;40.01
50430;BME280;36359;41.556;-8.418;2022-07-29T12:53:31;100100.16;;;30.31;39.94
50430;BME280;36359;41.556;-8.418;2022-07-29T12:55:58;100089.56;;;30.07;39.08
50430;BME280;36359;41.556;-8.418;2022-07-29T12:58:28;100103.44;;;30.38;39.05
50430;BME280;36359;41.556;-8.418;2022-07-29T13:01:08;100105.88;;;30.60;37.11
50430;BME280;36359;41.556;-8.418;2022-07-29T13:11:44;100104.72;;;31.11;36.97
50430;BME280;36359;41.556;-8.418;2022-07-29T13:14:36;100095.97;;;30.78;37.49
50430;BME280;36359;41.556;-8.418;2022-07-29T13:17:08;100101.06;;;29.96;39.66
50430;BME280;36359;41.556;-8.418;2022-07-29T13:19:38;100098.28;;;30.66;39.91
50430;BME280;36359;41.556;-8.418;2022-07-29T13:22:10;100091.06;;;30.54;39.39
50430;BME280;36359;41.556;-8.418;2022-07-29T13:24:56;100092.44;;;30.62;39.32
50430;BME280;36359;41.556;-8.418;2022-07-29T13:27:25;100087.72;;;31.02;40.17
50430;BME280;36359;41.556;-8.418;2022-07-29T13:29:53;100098.97;;;31.31;39.40
50430;BME280;36359;41.556;-8.418;2022-07-29T13:32:22;100092.53;;;31.36;39.57
50430;BME280;36359;41.556;-8.418;2022-07-29T13:34:48;100078.47;;;31.65;38.76
50430;BME280;36359;41.556;-8.418;2022-07-29T13:37:14;100086.78;;;31.75;39.39
50430;BME280;36359;41.556;-8.418;2022-07-29T13:39:40;100084.25;;;31.50;39.37
50430;BME280;36359;41.556;-8.418;2022-07-29T13:42:07;100086.66;;;31.85;38.58
50430;BME280;36359;41.556;-8.418;2022-07-29T13:44:34;100083.13;;;31.51;38.95
50430;BME280;36359;41.556;-8.418;2022-07-29T13:47:00;100083.25;;;31.35;38.21